Time;durP1;ratioP1;P1;durP2;ratioP2;P2;SDS_P1;SDS_P2;PMS_P1;PMS_P2;Temp;Humidity;BMP_temperature;BMP_pressure;BME280_temperature;BME280_humidity;BME280_pressure;Samples;Min_cycle;Max_cycle;Signal;HPM_P1;HPM_P2
2021/03/24 00:00:50;;;;;;;42.90;28.93;;;6.20;99.90;;;;;;5037898;28;20437;-71
2021/03/24 00:03:16;;;;;;;40.73;28.27;;;6.20;99.90;;;;;;5035254;28;20434;-71
2021/03/24 00:05:45;;;;;;;44.10;29.27;;;6.20;99.90;;;;;;5037141;28;20423;-70
2021/03/24 00:08:11;;;;;;;46.87;30.07;;;6.20;99.90;;;;;;5036645;28;20887;-71
2021/03/24 00:10:38;;;;;;;40.57;29.17;;;6.20;99.90;;;;;;5037515;28;20427;-71
2021/03/24 00:13:05;;;;;;;43.20;27.73;;;6.20;99.90;;;;;;5036053;28;20476;-71
2021/03/24 00:15:31;;;;;;;45.93;28.50;;;6.20;99.90;;;;;;5036625;28;20514;-74
2021/03/24 00:17:57;;;;;;;50.23;29.13;;;6.10;99.90;;;;;;5035121;28;20418;-71
2021/03/24 00:20:28;;;;;;;42.80;28.77;;;6.10;99.90;;;;;;5035754;28;20256;-72
2021/03/24 00:22:54;;;;;;;45.93;28.40;;;6.10;99.90;;;;;;5035489;28;20430;-72
2021/03/24 00:25:20;;;;;;;44.37;29.97;;;6.10;99.90;;;;;;5017760;28;20468;-72
2021/03/24 00:27:48;;;;;;;44.07;27.47;;;6.10;99.90;;;;;;5015640;28;20410;-71
2021/03/24 00:30:17;;;;;;;43.43;28.80;;;6.00;99.90;;;;;;5015660;28;20426;-71
2021/03/24 00:32:42;;;;;;;43.30;29.37;;;6.10;99.90;;;;;;5014400;28;20518;-72
2021/03/24 00:35:10;;;;;;;42.43;28.03;;;6.10;99.90;;;;;;5016531;28;20545;-74
2021/03/24 00:37:36;;;;;;;43.83;30.20;;;6.10;99.90;;;;;;5015620;28;20222;-73
2021/03/24 00:40:02;;;;;;;45.30;29.50;;;6.10;99.90;;;;;;5013882;28;20968;-73
2021/03/24 00:42:28;;;;;;;41.70;28.40;;;6.10;99.90;;;;;;5015694;28;20415;-72
2021/03/24 00:44:53;;;;;;;41.67;28.57;;;6.10;99.90;;;;;;5015615;28;20430;-72
2021/03/24 00:47:19;;;;;;;46.77;28.80;;;6.10;99.90;;;;;;5018043;28;20179;-72
2021/03/24 00:49:45;;;;;;;40.37;28.77;;;6.10;99.90;;;;;;5016006;28;20194;-72
2021/03/24 00:52:10;;;;;;;44.60;29.87;;;6.10;99.90;;;;;;5015894;28;20669;-73
2021/03/24 00:54:36;;;;;;;46.80;29.40;;;6.20;99.90;;;;;;5035393;28;20211;-72
2021/03/24 00:57:02;;;;;;;41.43;28.23;;;6.20;99.90;;;;;;5056658;28;20185;-72
2021/03/24 00:59:27;;;;;;;50.27;30.00;;;6.10;99.90;;;;;;5039750;28;20175;-72
2021/03/24 01:01:53;;;;;;;43.70;30.13;;;6.10;99.90;;;;;;5053474;28;20211;-72
2021/03/24 01:04:18;;;;;;;46.63;29.90;;;6.10;99.90;;;;;;5057779;28;20186;-72
2021/03/24 01:06:44;;;;;;;47.57;30.10;;;6.10;99.90;;;;;;5052259;28;20171;-71
2021/03/24 01:09:10;;;;;;;45.50;27.13;;;6.00;99.90;;;;;;5035348;28;20177;-72
2021/03/24 01:11:41;;;;;;;41.60;27.90;;;6.00;99.90;;;;;;5034558;28;20194;-71
2021/03/24 01:14:09;;;;;;;39.20;27.70;;;6.00;99.90;;;;;;5035660;28;20604;-72
2021/03/24 01:16:35;;;;;;;43.90;28.23;;;6.00;99.90;;;;;;5033500;28;20534;-72
2021/03/24 01:19:01;;;;;;;45.57;27.63;;;6.00;99.90;;;;;;4995370;28;20469;-71
2021/03/24 01:21:26;;;;;;;40.07;28.07;;;6.00;99.90;;;;;;4995108;28;20904;-72
2021/03/24 01:23:52;;;;;;;42.90;29.00;;;6.00;99.90;;;;;;4995430;28;20188;-72
2021/03/24 01:26:19;;;;;;;46.73;29.57;;;6.00;99.90;;;;;;5003453;28;20209;-71
2021/03/24 01:28:45;;;;;;;39.70;27.73;;;6.00;99.90;;;;;;5014768;28;20538;-73
2021/03/24 01:31:10;;;;;;;42.97;28.77;;;6.00;99.90;;;;;;5014390;28;20598;-74
2021/03/24 01:33:36;;;;;;;40.33;26.87;;;6.00;99.90;;;;;;5014377;28;20723;-72
2021/03/24 01:36:02;;;;;;;43.40;27.23;;;6.00;99.90;;;;;;5014947;28;20196;-74
2021/03/24 01:38:28;;;;;;;40.73;27.00;;;5.90;99.90;;;;;;5015767;28;20244;-73
2021/03/24 01:40:56;;;;;;;35.27;25.40;;;5.90;99.90;;;;;;5014690;28;20814;-73
2021/03/24 01:43:32;;;;;;;40.80;26.67;;;5.90;99.90;;;;;;5014612;28;20168;-73
2021/03/24 01:46:20;;;;;;;41.57;27.37;;;5.90;99.90;;;;;;5015624;28;20910;-73
2021/03/24 01:48:53;;;;;;;40.30;28.20;;;5.80;99.90;;;;;;5028643;28;20497;-73
2021/03/24 01:51:21;;;;;;;43.80;27.27;;;5.80;99.90;;;;;;5034084;28;20793;-73
2021/03/24 01:53:48;;;;;;;44.67;26.00;;;5.80;99.90;;;;;;5034633;28;20398;-73
2021/03/24 01:56:14;;;;;;;41.90;27.37;;;5.80;99.90;;;;;;5034614;28;20548;-73
2021/03/24 01:58:41;;;;;;;45.40;27.30;;;5.70;99.90;;;;;;5031848;28;20449;-73
2021/03/24 02:01:14;;;;;;;44.27;27.97;;;5.70;99.90;;;;;;5033775;28;20436;-73
2021/03/24 02:03:40;;;;;;;41.63;24.93;;;5.60;99.90;;;;;;5034386;28;20393;-73
2021/03/24 02:06:13;;;;;;;37.93;25.07;;;5.60;99.90;;;;;;5033814;28;20471;-73
2021/03/24 02:08:44;;;;;;;37.67;25.67;;;5.60;99.90;;;;;;5031998;28;20442;-73
2021/03/24 02:11:32;;;;;;;40.17;26.80;;;5.60;99.90;;;;;;5033619;28;20429;-73
2021/03/24 02:14:08;;;;;;;36.90;25.63;;;5.60;99.90;;;;;;5034325;28;20406;-73
2021/03/24 02:16:42;;;;;;;42.60;24.93;;;5.60;99.90;;;;;;5034039;28;21041;-72
2021/03/24 02:19:23;;;;;;;39.63;25.57;;;5.60;99.90;;;;;;5031999;28;20421;-72
2021/03/24 02:21:50;;;;;;;39.63;25.37;;;5.60;99.90;;;;;;5033385;28;20445;-72
2021/03/24 02:24:30;;;;;;;42.00;26.30;;;5.60;99.90;;;;;;5034072;28;20728;-72
2021/03/24 02:27:05;;;;;;;39.97;26.13;;;5.60;99.90;;;;;;5033900;28;20401;-72
2021/03/24 02:29:32;;;;;;;38.73;24.27;;;5.60;99.90;;;;;;5031256;28;20421;-72
2021/03/24 02:31:59;;;;;;;38.77;26.33;;;5.60;99.90;;;;;;5032858;28;20922;-71
2021/03/24 02:34:28;;;;;;;40.13;25.53;;;5.60;99.90;;;;;;5033363;28;20501;-73
2021/03/24 02:36:56;;;;;;;39.73;27.63;;;5.50;99.90;;;;;;5033438;28;20444;-70
2021/03/24 02:39:25;;;;;;;43.63;25.37;;;5.50;99.90;;;;;;5033634;28;20878;-73
2021/03/24 02:41:54;;;;;;;41.97;26.43;;;5.50;99.90;;;;;;5031501;28;20470;-73
2021/03/24 02:44:20;;;;;;;35.07;23.20;;;5.40;99.90;;;;;;5034177;28;20409;-70
2021/03/24 02:46:46;;;;;;;33.97;24.13;;;5.40;99.90;;;;;;5034232;28;20447;-71
2021/03/24 02:49:12;;;;;;;42.20;26.13;;;5.50;99.90;;;;;;5033530;28;20748;-71
2021/03/24 02:51:39;;;;;;;33.97;23.80;;;5.50;99.90;;;;;;5031859;28;20194;-71
2021/03/24 02:54:09;;;;;;;38.67;24.20;;;5.40;99.90;;;;;;5033074;28;20440;-71
2021/03/24 02:56:35;;;;;;;35.80;24.73;;;5.40;99.90;;;;;;5033906;28;20460;-72
2021/03/24 02:59:01;;;;;;;37.30;23.73;;;5.40;99.90;;;;;;5034788;28;20401;-71
2021/03/24 03:01:34;;;;;;;34.77;23.30;;;5.40;99.90;;;;;;5037739;28;20480;-71
2021/03/24 03:04:12;;;;;;;39.20;25.10;;;5.30;99.90;;;;;;5040169;28;20421;-71
2021/03/24 03:06:39;;;;;;;40.30;24.57;;;5.30;99.90;;;;;;5033874;28;20397;-71
2021/03/24 03:09:13;;;;;;;37.63;25.17;;;5.40;99.90;;;;;;5031883;28;20457;-71
2021/03/24 03:11:51;;;;;;;37.03;23.90;;;5.30;99.90;;;;;;5033206;28;20510;-71
2021/03/24 03:14:27;;;;;;;38.90;23.50;;;5.30;99.90;;;;;;5031869;28;20417;-72
2021/03/24 03:17:00;;;;;;;35.03;23.57;;;5.40;99.90;;;;;;5032176;28;20530;-71
2021/03/24 03:19:32;;;;;;;36.70;24.07;;;5.40;99.90;;;;;;5032160;28;20587;-72
2021/03/24 03:22:04;;;;;;;35.87;23.57;;;5.40;99.90;;;;;;5033311;28;20414;-72
2021/03/24 03:24:45;;;;;;;39.77;25.03;;;5.40;99.90;;;;;;5034126;28;20863;-72
2021/03/24 03:27:14;;;;;;;36.17;24.43;;;5.40;99.90;;;;;;5037085;28;20478;-72
2021/03/24 03:29:42;;;;;;;38.73;24.40;;;5.30;99.90;;;;;;5035467;28;20426;-72
2021/03/24 03:32:12;;;;;;;37.37;24.30;;;5.30;99.90;;;;;;5036846;28;20505;-72
2021/03/24 03:34:40;;;;;;;41.10;25.20;;;5.30;99.90;;;;;;5035536;28;20452;-72
2021/03/24 03:37:07;;;;;;;39.33;25.63;;;5.20;99.90;;;;;;5036803;28;20882;-72
2021/03/24 03:39:32;;;;;;;38.67;24.80;;;5.20;99.90;;;;;;5036803;28;20542;-72
2021/03/24 03:42:02;;;;;;;37.53;25.00;;;5.20;99.90;;;;;;5033971;28;20512;-73
2021/03/24 03:44:29;;;;;;;37.10;23.93;;;5.20;99.90;;;;;;5036650;28;20529;-73
2021/03/24 03:46:59;;;;;;;42.20;24.37;;;5.20;99.90;;;;;;5036738;28;20406;-73
2021/03/24 03:49:24;;;;;;;43.13;24.90;;;5.20;99.90;;;;;;5036249;28;20400;-72
2021/03/24 03:52:25;;;;;;;39.17;24.20;;;5.20;99.90;;;;;;5035150;28;20531;-72
2021/03/24 03:55:13;;;;;;;43.23;26.87;;;5.10;99.90;;;;;;5034719;28;20202;-72
2021/03/24 03:57:54;;;;;;;36.57;23.67;;;5.10;99.90;;;;;;5028298;28;20813;-73
2021/03/24 04:00:24;;;;;;;43.70;24.27;;;5.10;99.90;;;;;;5035058;28;20432;-73
2021/03/24 04:03:02;;;;;;;35.47;23.10;;;5.10;99.90;;;;;;5034935;28;20421;-72
2021/03/24 04:05:38;;;;;;;35.97;23.63;;;5.00;99.90;;;;;;5035728;28;20405;-73
2021/03/24 04:08:10;;;;;;;35.20;23.97;;;4.90;99.90;;;;;;5036330;28;20405;-72
2021/03/24 04:10:40;;;;;;;33.60;22.27;;;4.90;99.90;;;;;;5036309;28;20827;-73
2021/03/24 04:13:08;;;;;;;37.60;24.17;;;4.90;99.90;;;;;;5034504;28;20476;-73
2021/03/24 04:15:33;;;;;;;37.43;22.67;;;5.00;99.90;;;;;;5036636;28;20453;-72
2021/03/24 04:18:03;;;;;;;40.50;24.47;;;5.00;99.90;;;;;;5035766;28;20471;-73
2021/03/24 04:20:31;;;;;;;35.43;22.33;;;5.00;99.90;;;;;;5035394;28;20226;-72
2021/03/24 04:22:58;;;;;;;34.07;20.83;;;5.00;99.90;;;;;;5034963;28;20816;-73
2021/03/24 04:25:34;;;;;;;37.40;23.30;;;5.00;99.90;;;;;;5039939;28;20444;-72
2021/03/24 04:28:03;;;;;;;38.13;23.10;;;5.00;99.90;;;;;;5035311;28;20426;-73
2021/03/24 04:30:34;;;;;;;38.07;22.80;;;5.00;99.90;;;;;;5038901;28;20498;-73
2021/03/24 04:33:00;;;;;;;34.90;22.37;;;5.00;99.90;;;;;;5029015;28;20426;-72
2021/03/24 04:35:25;;;;;;;36.07;21.90;;;4.90;99.90;;;;;;5032266;28;20462;-72
2021/03/24 04:37:55;;;;;;;34.10;22.10;;;4.90;99.90;;;;;;5039097;28;20413;-72
2021/03/24 04:40:44;;;;;;;35.13;22.23;;;4.80;99.90;;;;;;5038381;28;20207;-73
2021/03/24 04:43:18;;;;;;;35.60;23.53;;;4.70;99.90;;;;;;5017604;28;20463;-73
2021/03/24 04:46:03;;;;;;;37.83;23.70;;;4.70;99.90;;;;;;5016733;28;20871;-73
2021/03/24 04:48:35;;;;;;;37.60;23.10;;;4.70;99.90;;;;;;5016104;28;20418;-72
2021/03/24 04:51:27;;;;;;;36.13;23.70;;;4.70;99.90;;;;;;5014394;28;20808;-72
2021/03/24 04:54:01;;;;;;;35.53;21.07;;;4.80;99.90;;;;;;5019137;28;20427;-73
2021/03/24 04:56:27;;;;;;;32.77;22.90;;;4.80;99.90;;;;;;5035370;28;20507;-72
2021/03/24 04:58:57;;;;;;;41.47;22.77;;;4.80;99.90;;;;;;5035289;28;20418;-72
2021/03/24 05:01:28;;;;;;;41.50;22.73;;;4.80;99.90;;;;;;5033734;28;20950;-72
2021/03/24 05:03:59;;;;;;;35.47;22.47;;;4.70;99.90;;;;;;5035354;28;20429;-73
2021/03/24 05:06:54;;;;;;;39.20;21.63;;;4.70;99.90;;;;;;5034510;28;20432;-73
2021/03/24 05:09:19;;;;;;;37.27;23.00;;;4.70;99.90;;;;;;5033011;28;20437;-73
2021/03/24 05:11:54;;;;;;;37.67;24.07;;;4.70;99.90;;;;;;5034236;28;20437;-72
2021/03/24 05:14:32;;;;;;;33.93;22.80;;;4.70;99.90;;;;;;5035448;28;20642;-70
2021/03/24 05:17:26;;;;;;;37.43;21.60;;;4.70;99.90;;;;;;5033514;28;20917;-72
2021/03/24 05:19:59;;;;;;;35.07;21.87;;;4.80;99.90;;;;;;5033560;28;20497;-73
2021/03/24 05:22:43;;;;;;;35.67;22.30;;;4.80;99.90;;;;;;5034057;28;20478;-73
2021/03/24 05:25:26;;;;;;;33.67;23.20;;;4.80;99.90;;;;;;5034878;28;20405;-73
2021/03/24 05:28:02;;;;;;;37.70;23.63;;;4.70;99.90;;;;;;4993978;28;20494;-73
2021/03/24 05:30:37;;;;;;;33.53;21.47;;;4.70;99.90;;;;;;5010019;28;20761;-72
2021/03/24 05:33:09;;;;;;;34.67;22.80;;;4.70;99.90;;;;;;4995357;28;20395;-73
2021/03/24 05:35:46;;;;;;;34.47;21.70;;;4.70;99.90;;;;;;4994153;28;20469;-72
2021/03/24 05:38:42;;;;;;;34.23;22.30;;;4.70;99.90;;;;;;5015095;28;20509;-72
2021/03/24 05:41:25;;;;;;;44.43;23.90;;;4.70;99.90;;;;;;5014390;28;20462;-73
2021/03/24 05:44:28;;;;;;;34.80;23.00;;;4.80;99.90;;;;;;5014960;28;20401;-72
2021/03/24 05:47:33;;;;;;;37.67;23.90;;;4.70;99.90;;;;;;5015983;28;20409;-72
2021/03/24 05:50:40;;;;;;;39.80;23.97;;;4.70;99.90;;;;;;5014066;28;20859;-72
2021/03/24 05:53:24;;;;;;;39.27;24.33;;;4.60;99.90;;;;;;5014940;28;20740;-72
2021/03/24 05:55:58;;;;;;;41.83;24.87;;;4.60;99.90;;;;;;5014644;28;20897;-74
2021/03/24 05:58:39;;;;;;;37.90;23.47;;;4.60;99.90;;;;;;5015389;28;20946;-72
2021/03/24 06:01:08;;;;;;;39.27;23.40;;;4.60;99.90;;;;;;5010762;28;20955;-72
2021/03/24 06:04:00;;;;;;;36.17;22.90;;;4.70;99.90;;;;;;5003673;28;20961;-71
2021/03/24 06:07:03;;;;;;;35.33;21.67;;;4.80;99.90;;;;;;4998745;28;20418;-73
2021/03/24 06:09:53;;;;;;;37.23;23.37;;;4.80;99.90;;;;;;5012121;28;20435;-71
2021/03/24 06:12:34;;;;;;;38.03;23.20;;;4.80;99.90;;;;;;5009866;28;20456;-74
2021/03/24 06:15:30;;;;;;;36.10;23.47;;;4.80;99.90;;;;;;5012871;28;20522;-73
2021/03/24 06:18:11;;;;;;;34.50;21.90;;;4.90;99.90;;;;;;5010917;28;20435;-72
2021/03/24 06:20:45;;;;;;;41.47;23.67;;;4.90;99.90;;;;;;4994797;28;21005;-73
2021/03/24 06:23:29;;;;;;;41.07;23.33;;;4.90;99.90;;;;;;5029319;28;20940;-73
2021/03/24 06:26:04;;;;;;;36.10;23.23;;;5.00;99.90;;;;;;5033787;28;20419;-72
2021/03/24 06:28:48;;;;;;;38.03;22.57;;;5.10;99.90;;;;;;5018180;28;20437;-72
2021/03/24 06:31:22;;;;;;;34.70;21.63;;;5.10;99.90;;;;;;5007677;28;20443;-70
2021/03/24 06:34:18;;;;;;;37.43;22.70;;;5.10;99.90;;;;;;5002038;28;20481;-70
2021/03/24 06:37:21;;;;;;;38.33;24.50;;;5.10;99.90;;;;;;5002850;28;20454;-70
2021/03/24 06:39:53;;;;;;;40.00;25.50;;;5.20;99.90;;;;;;5017763;28;20433;-72
2021/03/24 06:42:22;;;;;;;35.60;22.33;;;5.30;99.90;;;;;;5012877;28;20442;-71
2021/03/24 06:45:09;;;;;;;36.00;22.40;;;5.30;99.90;;;;;;5003002;28;20454;-72
2021/03/24 06:47:56;;;;;;;38.40;23.47;;;5.40;99.90;;;;;;5014568;28;20444;-72
2021/03/24 06:51:16;;;;;;;40.17;23.83;;;5.40;99.90;;;;;;5015886;28;20457;-72
2021/03/24 06:54:37;;;;;;;40.63;24.63;;;5.50;99.90;;;;;;5010500;28;20821;-71
2021/03/24 06:57:39;;;;;;;42.10;23.90;;;5.60;99.90;;;;;;4954853;28;20814;-71
2021/03/24 07:00:17;;;;;;;33.33;24.00;;;5.60;99.90;;;;;;4962786;28;20448;-71
2021/03/24 07:03:09;;;;;;;37.10;22.63;;;5.70;99.90;;;;;;4965760;28;20427;-72
2021/03/24 07:05:47;;;;;;;42.80;24.50;;;5.70;99.90;;;;;;4967836;28;20573;-72
2021/03/24 07:08:42;;;;;;;38.43;25.80;;;5.70;99.90;;;;;;4973789;28;20423;-72
2021/03/24 07:11:49;;;;;;;39.10;25.23;;;5.80;99.90;;;;;;4972834;28;20448;-71
2021/03/24 07:14:56;;;;;;;33.20;23.13;;;5.90;99.90;;;;;;4974199;28;20436;-71
2021/03/24 07:17:33;;;;;;;43.40;24.23;;;6.00;99.90;;;;;;4953933;28;20487;-72
2021/03/24 07:20:32;;;;;;;35.90;23.77;;;6.10;99.90;;;;;;4956188;28;20499;-73
2021/03/24 07:23:18;;;;;;;32.60;22.27;;;6.20;99.90;;;;;;4961422;28;20437;-71
2021/03/24 07:26:04;;;;;;;41.77;25.87;;;6.20;99.90;;;;;;4972577;28;20431;-73
2021/03/24 07:28:59;;;;;;;38.07;24.27;;;6.30;99.90;;;;;;5004302;28;20445;-71
2021/03/24 07:31:43;;;;;;;37.10;22.33;;;6.40;99.90;;;;;;5014937;28;20558;-72
2021/03/24 07:34:39;;;;;;;39.70;23.10;;;6.50;99.90;;;;;;5010226;28;20434;-72
2021/03/24 07:37:25;;;;;;;36.03;23.07;;;6.60;99.90;;;;;;5010816;28;20426;-72
2021/03/24 07:40:37;;;;;;;38.93;24.07;;;6.70;99.90;;;;;;5004144;28;20543;-71
2021/03/24 07:43:47;;;;;;;35.23;23.50;;;6.80;99.90;;;;;;5008111;28;20526;-72
2021/03/24 07:46:20;;;;;;;35.33;22.60;;;7.00;99.90;;;;;;4993640;28;20961;-72
2021/03/24 07:49:10;;;;;;;34.17;20.93;;;7.10;99.90;;;;;;4998926;28;20509;-72
2021/03/24 07:52:13;;;;;;;38.33;22.97;;;7.20;99.90;;;;;;4995401;28;20433;-72
2021/03/24 07:55:19;;;;;;;31.80;20.53;;;7.30;99.90;;;;;;4978057;28;20797;-72
2021/03/24 07:58:15;;;;;;;30.67;20.40;;;7.40;99.90;;;;;;4999378;28;20499;-72
2021/03/24 08:00:43;;;;;;;30.00;21.67;;;7.50;99.90;;;;;;5005361;28;20451;-73
2021/03/24 08:03:30;;;;;;;31.47;20.07;;;7.50;99.90;;;;;;5017457;28;20408;-71
2021/03/24 08:06:27;;;;;;;34.13;21.83;;;7.60;99.90;;;;;;5041231;28;20430;-71
2021/03/24 08:09:28;;;;;;;30.73;20.00;;;7.80;99.90;;;;;;5023601;28;20420;-72
2021/03/24 08:12:07;;;;;;;28.13;19.60;;;7.90;99.90;;;;;;5029350;28;20398;-72
2021/03/24 08:14:45;;;;;;;31.60;19.17;;;8.10;99.90;;;;;;5032631;28;20470;-72
2021/03/24 08:17:24;;;;;;;33.93;20.63;;;8.20;99.90;;;;;;5026049;28;20453;-72
2021/03/24 08:19:50;;;;;;;29.00;20.53;;;8.20;99.90;;;;;;5022152;28;20922;-72
2021/03/24 08:22:41;;;;;;;25.73;18.50;;;8.40;99.90;;;;;;5033996;28;20542;-72
2021/03/24 08:25:36;;;;;;;28.87;19.57;;;8.50;99.90;;;;;;4980392;28;20248;-71
2021/03/24 08:28:24;;;;;;;28.50;19.80;;;8.60;99.90;;;;;;4956765;29;20421;-72
2021/03/24 08:31:08;;;;;;;29.43;19.80;;;8.70;99.90;;;;;;4956264;29;20438;-71
2021/03/24 08:34:15;;;;;;;31.30;20.70;;;8.90;99.90;;;;;;4956962;29;20929;-71
2021/03/24 08:37:12;;;;;;;30.73;21.07;;;8.90;99.90;;;;;;4956977;28;20539;-72
2021/03/24 08:40:13;;;;;;;33.70;21.50;;;9.10;99.90;;;;;;4962754;28;20462;-71
2021/03/24 08:43:08;;;;;;;34.93;22.50;;;9.20;99.90;;;;;;4950465;28;20545;-73
2021/03/24 08:45:56;;;;;;;29.43;20.53;;;9.20;99.90;;;;;;4965102;28;20464;-73
2021/03/24 08:48:50;;;;;;;33.67;22.47;;;9.30;99.90;;;;;;4965813;28;20447;-72
2021/03/24 08:51:15;;;;;;;35.50;21.60;;;9.40;99.90;;;;;;4955282;28;20465;-71
2021/03/24 08:54:12;;;;;;;38.77;21.50;;;9.50;99.90;;;;;;4968018;28;20511;-71
2021/03/24 08:56:55;;;;;;;34.50;21.43;;;9.60;99.90;;;;;;4960587;28;20308;-72
2021/03/24 08:59:39;;;;;;;35.73;22.20;;;9.70;99.90;;;;;;4950323;28;20444;-71
2021/03/24 09:02:41;;;;;;;32.10;19.73;;;9.90;99.90;;;;;;4987655;28;20432;-73
2021/03/24 09:05:33;;;;;;;31.03;19.30;;;10.00;99.90;;;;;;4993563;28;20925;-73
2021/03/24 09:08:22;;;;;;;30.57;20.43;;;10.10;99.90;;;;;;5006070;28;20427;-72
2021/03/24 09:11:32;;;;;;;28.37;19.57;;;10.30;99.90;;;;;;5012240;28;20449;-72
2021/03/24 09:14:15;;;;;;;29.20;20.03;;;10.40;99.90;;;;;;5010667;28;20422;-72
2021/03/24 09:17:06;;;;;;;28.73;20.70;;;10.50;99.80;;;;;;5012194;28;20458;-72
2021/03/24 09:20:23;;;;;;;31.03;20.40;;;10.60;99.50;;;;;;5012914;28;20427;-73
2021/03/24 09:23:36;;;;;;;32.80;21.57;;;10.70;99.30;;;;;;5026741;28;20457;-73
2021/03/24 09:26:55;;;;;;;36.80;22.77;;;10.80;98.80;;;;;;5031666;28;20922;-73
2021/03/24 09:29:26;;;;;;;39.10;24.17;;;10.90;98.10;;;;;;4970089;28;20424;-73
2021/03/24 09:32:16;;;;;;;43.07;25.03;;;10.90;97.90;;;;;;4992688;28;20467;-72
2021/03/24 09:35:00;;;;;;;39.67;24.57;;;11.00;97.70;;;;;;5011722;28;20495;-71
2021/03/24 09:37:39;;;;;;;40.00;25.33;;;11.00;97.50;;;;;;5030044;28;20456;-72
2021/03/24 09:40:09;;;;;;;39.23;24.47;;;11.10;97.70;;;;;;5010546;28;21034;-73
2021/03/24 09:42:46;;;;;;;40.80;26.50;;;11.20;97.50;;;;;;5007597;28;20928;-73
2021/03/24 09:45:12;;;;;;;37.00;23.00;;;11.30;97.30;;;;;;5011080;28;20413;-72
2021/03/24 09:47:59;;;;;;;39.13;25.60;;;11.40;97.20;;;;;;5014793;28;20497;-73
2021/03/24 09:50:31;;;;;;;47.03;25.63;;;11.40;96.80;;;;;;4998946;28;20211;-72
2021/03/24 09:53:15;;;;;;;39.70;24.10;;;11.50;96.80;;;;;;4998328;28;20801;-73
2021/03/24 09:55:46;;;;;;;49.90;26.40;;;11.60;96.60;;;;;;4995240;28;20518;-73
2021/03/24 09:58:24;;;;;;;44.57;24.40;;;11.70;96.50;;;;;;5009065;28;20791;-72
2021/03/24 10:00:57;;;;;;;40.13;24.00;;;11.80;96.20;;;;;;4999607;28;20815;-72
2021/03/24 10:03:41;;;;;;;39.17;25.30;;;11.80;95.80;;;;;;5010809;28;20462;-72
2021/03/24 10:06:17;;;;;;;39.93;25.00;;;11.80;95.70;;;;;;5008692;28;20430;-71
2021/03/24 10:08:46;;;;;;;40.67;24.47;;;11.70;95.60;;;;;;5027904;28;20413;-72
2021/03/24 10:11:22;;;;;;;39.40;24.67;;;11.80;95.90;;;;;;5029707;28;20433;-72
2021/03/24 10:13:59;;;;;;;37.33;23.63;;;11.90;95.60;;;;;;5006202;28;20433;-72
2021/03/24 10:16:30;;;;;;;37.50;22.83;;;12.00;95.70;;;;;;5011245;28;20461;-71
2021/03/24 10:19:10;;;;;;;41.00;24.83;;;12.10;95.60;;;;;;5014463;28;20419;-71
2021/03/24 10:21:55;;;;;;;41.13;24.10;;;12.20;95.40;;;;;;5020027;28;20525;-72
2021/03/24 10:24:34;;;;;;;42.67;25.20;;;12.30;95.20;;;;;;5034159;28;20479;-71
2021/03/24 10:27:09;;;;;;;42.67;25.77;;;12.40;95.00;;;;;;5033942;28;20402;-72
2021/03/24 10:29:48;;;;;;;40.00;25.07;;;12.60;94.90;;;;;;5023264;28;20422;-72
2021/03/24 10:32:28;;;;;;;41.23;26.50;;;12.70;94.70;;;;;;5014369;28;20441;-71
2021/03/24 10:35:02;;;;;;;39.00;24.90;;;12.80;94.70;;;;;;5016641;28;20464;-72
2021/03/24 10:37:48;;;;;;;41.77;25.07;;;12.90;94.60;;;;;;5018019;28;20426;-72
2021/03/24 10:40:16;;;;;;;52.50;29.43;;;12.90;94.40;;;;;;5022166;28;20460;-72
2021/03/24 10:43:11;;;;;;;47.30;27.43;;;12.70;94.00;;;;;;5034249;28;20445;-72
2021/03/24 10:45:47;;;;;;;42.87;27.83;;;12.70;94.00;;;;;;5003170;28;20785;-72
2021/03/24 10:48:31;;;;;;;47.77;25.53;;;12.90;94.30;;;;;;5030075;28;20424;-72
2021/03/24 10:51:17;;;;;;;42.97;27.30;;;13.00;94.10;;;;;;5034030;28;20942;-72
2021/03/24 10:53:43;;;;;;;42.77;28.20;;;13.10;94.00;;;;;;5032917;28;20502;-73
2021/03/24 10:56:36;;;;;;;43.77;29.30;;;13.00;93.90;;;;;;5033862;28;20549;-71
2021/03/24 10:59:02;;;;;;;41.00;26.23;;;12.90;94.00;;;;;;5033262;28;20174;-71
2021/03/24 11:01:45;;;;;;;41.80;27.90;;;13.00;93.90;;;;;;5033885;28;20417;-72
2021/03/24 11:04:48;;;;;;;39.57;26.10;;;12.90;93.30;;;;;;5033537;28;20174;-71
2021/03/24 11:07:19;;;;;;;42.87;27.47;;;13.00;93.50;;;;;;5031049;28;20428;-72
2021/03/24 11:09:54;;;;;;;40.03;26.40;;;13.10;93.40;;;;;;5013821;28;20485;-73
2021/03/24 11:12:52;;;;;;;42.30;26.80;;;13.20;93.20;;;;;;5014165;28;20395;-71
2021/03/24 11:15:36;;;;;;;47.13;28.60;;;13.30;93.10;;;;;;5013824;28;20488;-72
2021/03/24 11:18:09;;;;;;;38.97;25.20;;;13.30;92.90;;;;;;5015201;28;20409;-72
2021/03/24 11:20:56;;;;;;;49.10;25.90;;;13.30;92.80;;;;;;5013561;28;20435;-71
2021/03/24 11:23:41;;;;;;;38.10;25.70;;;13.20;92.40;;;;;;4993750;28;20506;-72
2021/03/24 11:26:44;;;;;;;42.27;26.50;;;13.20;92.50;;;;;;4992988;28;20470;-70
2021/03/24 11:29:13;;;;;;;39.57;24.47;;;13.20;92.40;;;;;;5003261;28;20444;-72
2021/03/24 11:31:56;;;;;;;43.93;26.03;;;13.20;92.30;;;;;;5013902;28;20792;-73
2021/03/24 11:34:32;;;;;;;42.80;25.20;;;13.20;92.30;;;;;;5015007;28;20407;-72
2021/03/24 11:37:18;;;;;;;41.13;24.37;;;13.20;92.20;;;;;;5013972;28;20569;-72
2021/03/24 11:39:48;;;;;;;41.00;28.48;;;13.30;92.10;;;;;;5020193;28;20414;-72
2021/03/24 11:42:15;;;;;;;39.47;26.00;;;13.30;92.00;;;;;;5035503;28;20179;-73
2021/03/24 11:44:44;;;;;;;37.27;25.27;;;13.20;92.00;;;;;;5036788;28;20747;-70
2021/03/24 11:47:20;;;;;;;41.40;25.70;;;13.30;92.20;;;;;;5049396;28;20405;-72
2021/03/24 11:50:01;;;;;;;40.83;24.60;;;13.40;92.20;;;;;;5055976;28;20413;-73
2021/03/24 11:52:45;;;;;;;38.97;24.37;;;13.60;91.90;;;;;;5030499;28;20430;-71
2021/03/24 11:55:28;;;;;;;33.47;21.53;;;13.50;91.70;;;;;;5017347;28;20438;-72
2021/03/24 11:58:09;;;;;;;38.60;23.00;;;13.60;91.50;;;;;;5017591;28;20410;-71
2021/03/24 12:01:03;;;;;;;33.60;22.77;;;13.60;91.60;;;;;;5018587;28;20966;-72
2021/03/24 12:03:46;;;;;;;37.53;23.10;;;13.60;91.40;;;;;;5017073;28;20396;-72
2021/03/24 12:06:47;;;;;;;37.77;22.10;;;13.70;91.70;;;;;;5017397;28;20942;-71
2021/03/24 12:09:21;;;;;;;36.03;21.93;;;13.70;91.00;;;;;;5015338;28;20418;-72
2021/03/24 12:11:47;;;;;;;34.33;21.77;;;13.60;90.80;;;;;;5017774;28;20462;-72
2021/03/24 12:14:15;;;;;;;39.10;23.03;;;13.50;91.00;;;;;;5017236;28;20484;-72
2021/03/24 12:16:47;;;;;;;34.40;22.93;;;13.60;91.20;;;;;;5015211;28;20492;-71
2021/03/24 12:19:36;;;;;;;39.37;21.73;;;13.60;91.50;;;;;;5016479;28;20491;-72
2021/03/24 12:22:29;;;;;;;34.83;21.53;;;13.70;91.20;;;;;;5025741;28;20414;-72
2021/03/24 12:25:15;;;;;;;41.40;22.80;;;13.70;91.20;;;;;;5036124;28;20402;-72
2021/03/24 12:27:43;;;;;;;36.20;23.13;;;13.70;91.20;;;;;;5036252;28;20431;-72
2021/03/24 12:30:24;;;;;;;33.10;22.10;;;13.70;91.30;;;;;;5036285;28;20425;-72
2021/03/24 12:32:51;;;;;;;35.07;22.93;;;13.80;91.30;;;;;;5034812;28;20433;-72
2021/03/24 12:35:24;;;;;;;35.43;21.73;;;13.80;91.20;;;;;;5035773;28;20463;-71
2021/03/24 12:38:06;;;;;;;28.77;21.07;;;13.80;91.10;;;;;;5035764;28;20783;-70
2021/03/24 12:40:32;;;;;;;34.33;21.97;;;13.80;91.10;;;;;;5035659;28;20453;-72
2021/03/24 12:43:21;;;;;;;34.73;22.67;;;13.80;91.00;;;;;;5030914;28;20425;-72
2021/03/24 12:45:46;;;;;;;37.97;20.77;;;13.80;91.20;;;;;;5015928;28;20613;-72
2021/03/24 12:48:19;;;;;;;37.90;20.70;;;13.80;91.10;;;;;;5015495;28;20478;-72
2021/03/24 12:51:14;;;;;;;33.70;21.50;;;13.80;91.10;;;;;;5015400;28;20278;-72
2021/03/24 12:53:45;;;;;;;30.23;19.60;;;13.80;91.00;;;;;;5017098;28;20959;-73
2021/03/24 12:56:29;;;;;;;30.60;21.50;;;13.80;91.50;;;;;;5014947;28;20445;-73
2021/03/24 12:58:57;;;;;;;34.50;21.47;;;13.80;91.20;;;;;;5015718;28;20414;-73
2021/03/24 13:01:34;;;;;;;40.10;22.37;;;13.70;90.80;;;;;;5015995;28;20415;-72
2021/03/24 13:04:31;;;;;;;31.50;19.60;;;13.70;90.90;;;;;;5016733;28;20732;-73
2021/03/24 13:07:25;;;;;;;34.90;21.83;;;13.70;90.80;;;;;;5015259;28;20489;-72
2021/03/24 13:09:50;;;;;;;34.35;23.55;;;13.80;91.10;;;;;;5011182;28;20868;-71
2021/03/24 13:12:24;;;;;;;32.43;21.10;;;13.90;91.30;;;;;;5015295;28;20246;-72
2021/03/24 13:15:20;;;;;;;31.07;21.30;;;13.90;91.10;;;;;;5016900;28;20519;-72
2021/03/24 13:18:17;;;;;;;30.67;20.83;;;14.00;91.00;;;;;;5015791;28;20423;-72
2021/03/24 13:21:00;;;;;;;35.23;19.87;;;14.10;90.70;;;;;;5003098;28;20458;-72
2021/03/24 13:23:47;;;;;;;29.17;18.87;;;14.20;91.00;;;;;;4995630;28;20403;-72
2021/03/24 13:26:46;;;;;;;28.17;19.57;;;14.30;90.50;;;;;;5007434;28;20781;-72
2021/03/24 13:29:14;;;;;;;28.87;20.00;;;14.30;90.00;;;;;;5013848;28;20423;-71
2021/03/24 13:32:22;;;;;;;33.53;21.23;;;14.40;89.60;;;;;;5015223;28;20449;-71